sensor_id;sensor_type;location;lat;lon;timestamp;P1;durP1;ratioP1;P2;durP2;ratioP2
17949;SDS011;9100;48.700;9.316;2023-07-20T00:00:15;2.3;;;2.1;;
17949;SDS011;9100;48.700;9.316;2023-07-20T00:01:15;2.3;;;2.1;;
17949;SDS011;9100;48.700;9.316;2023-07-20T00:01:43;2.4;;;2.2;;
17949;SDS011;9100;48.700;9.316;2023-07-20T00:02:15;2.4;;;2.2;;
17949;SDS011;9100;48.700;9.316;2023-07-20T00:03:15;2.4;;;2.2;;
17949;SDS011;9100;48.700;9.316;2023-07-20T00:04:15;2.4;;;2.2;;
17949;SDS011;9100;48.700;9.316;2023-07-20T00:05:15;2.4;;;2.2;;
17949;SDS011;9100;48.700;9.316;2023-07-20T00:06:15;2.4;;;2.2;;
17949;SDS011;9100;48.700;9.316;2023-07-20T00:06:43;4.7;;;2;;
17949;SDS011;9100;48.700;9.316;2023-07-20T00:07:15;4.7;;;2;;
17949;SDS011;9100;48.700;9.316;2023-07-20T00:08:15;4.7;;;2;;
17949;SDS011;9100;48.700;9.316;2023-07-20T00:09:15;4.7;;;2;;
17949;SDS011;9100;48.700;9.316;2023-07-20T00:10:15;4.7;;;2;;
17949;SDS011;9100;48.700;9.316;2023-07-20T00:11:15;4.7;;;2;;
17949;SDS011;9100;48.700;9.316;2023-07-20T00:11:48;2.2;;;2;;
17949;SDS011;9100;48.700;9.316;2023-07-20T00:12:15;2.2;;;2;;
17949;SDS011;9100;48.700;9.316;2023-07-20T00:13:15;2.2;;;2;;
17949;SDS011;9100;48.700;9.316;2023-07-20T00:14:15;2.2;;;2;;
17949;SDS011;9100;48.700;9.316;2023-07-20T00:15:15;2.2;;;2;;
17949;SDS011;9100;48.700;9.316;2023-07-20T00:16:15;2.2;;;2;;
17949;SDS011;9100;48.700;9.316;2023-07-20T00:16:44;2.3;;;2.1;;
17949;SDS011;9100;48.700;9.316;2023-07-20T00:17:15;2.3;;;2.1;;
17949;SDS011;9100;48.700;9.316;2023-07-20T00:18:15;2.3;;;2.1;;
17949;SDS011;9100;48.700;9.316;2023-07-20T00:19:15;2.3;;;2.1;;
17949;SDS011;9100;48.700;9.316;2023-07-20T00:20:15;2.3;;;2.1;;
17949;SDS011;9100;48.700;9.316;2023-07-20T00:21:15;2.3;;;2.1;;
17949;SDS011;9100;48.700;9.316;2023-07-20T00:21:43;5;;;2.3;;
17949;SDS011;9100;48.700;9.316;2023-07-20T00:22:15;5;;;2.3;;
17949;SDS011;9100;48.700;9.316;2023-07-20T00:23:15;5;;;2.3;;
17949;SDS011;9100;48.700;9.316;2023-07-20T00:24:15;5;;;2.3;;
17949;SDS011;9100;48.700;9.316;2023-07-20T00:25:15;5;;;2.3;;
17949;SDS011;9100;48.700;9.316;2023-07-20T00:26:15;5;;;2.3;;
17949;SDS011;9100;48.700;9.316;2023-07-20T00:26:44;2.4;;;2;;
17949;SDS011;9100;48.700;9.316;2023-07-20T00:27:15;2.4;;;2;;
17949;SDS011;9100;48.700;9.316;2023-07-20T00:28:15;2.4;;;2;;
17949;SDS011;9100;48.700;9.316;2023-07-20T00:29:15;2.4;;;2;;
17949;SDS011;9100;48.700;9.316;2023-07-20T00:30:15;2.4;;;2;;
17949;SDS011;9100;48.700;9.316;2023-07-20T00:31:15;2.4;;;2;;
17949;SDS011;9100;48.700;9.316;2023-07-20T00:31:43;2.1;;;1.9;;
17949;SDS011;9100;48.700;9.316;2023-07-20T00:32:15;2.1;;;1.9;;
17949;SDS011;9100;48.700;9.316;2023-07-20T00:33:16;2.1;;;1.9;;
17949;SDS011;9100;48.700;9.316;2023-07-20T00:34:15;2.1;;;1.9;;
17949;SDS011;9100;48.700;9.316;2023-07-20T00:35:15;2.1;;;1.9;;
17949;SDS011;9100;48.700;9.316;2023-07-20T00:36:15;2.1;;;1.9;;
17949;SDS011;9100;48.700;9.316;2023-07-20T00:36:43;2.9;;;1.9;;
17949;SDS011;9100;48.700;9.316;2023-07-20T00:37:15;2.9;;;1.9;;
17949;SDS011;9100;48.700;9.316;2023-07-20T00:38:15;2.9;;;1.9;;
17949;SDS011;9100;48.700;9.316;2023-07-20T00:39:15;2.9;;;1.9;;
17949;SDS011;9100;48.700;9.316;2023-07-20T00:40:15;2.9;;;1.9;;
17949;SDS011;9100;48.700;9.316;2023-07-20T00:41:15;2.9;;;1.9;;
17949;SDS011;9100;48.700;9.316;2023-07-20T00:41:43;2.7;;;2.4;;
17949;SDS011;9100;48.700;9.316;2023-07-20T00:42:15;2.7;;;2.4;;
17949;SDS011;9100;48.700;9.316;2023-07-20T00:43:15;2.7;;;2.4;;
17949;SDS011;9100;48.700;9.316;2023-07-20T00:44:15;2.7;;;2.4;;
17949;SDS011;9100;48.700;9.316;2023-07-20T00:45:15;2.7;;;2.4;;
17949;SDS011;9100;48.700;9.316;2023-07-20T00:46:15;2.7;;;2.4;;
17949;SDS011;9100;48.700;9.316;2023-07-20T00:46:43;2.6;;;2.4;;
17949;SDS011;9100;48.700;9.316;2023-07-20T00:47:15;2.6;;;2.4;;
17949;SDS011;9100;48.700;9.316;2023-07-20T00:48:15;2.6;;;2.4;;
17949;SDS011;9100;48.700;9.316;2023-07-20T00:49:15;2.6;;;2.4;;
17949;SDS011;9100;48.700;9.316;2023-07-20T00:50:15;2.6;;;2.4;;
17949;SDS011;9100;48.700;9.316;2023-07-20T00:51:15;2.6;;;2.4;;
17949;SDS011;9100;48.700;9.316;2023-07-20T00:51:43;4.6;;;2.6;;
17949;SDS011;9100;48.700;9.316;2023-07-20T00:52:15;4.6;;;2.6;;
17949;SDS011;9100;48.700;9.316;2023-07-20T00:53:15;4.6;;;2.6;;
17949;SDS011;9100;48.700;9.316;2023-07-20T00:54:15;4.6;;;2.6;;
17949;SDS011;9100;48.700;9.316;2023-07-20T00:55:15;4.6;;;2.6;;
17949;SDS011;9100;48.700;9.316;2023-07-20T00:56:15;4.6;;;2.6;;
17949;SDS011;9100;48.700;9.316;2023-07-20T00:56:43;4.2;;;2.4;;
17949;SDS011;9100;48.700;9.316;2023-07-20T00:57:15;4.2;;;2.4;;
17949;SDS011;9100;48.700;9.316;2023-07-20T00:58:15;4.2;;;2.4;;
17949;SDS011;9100;48.700;9.316;2023-07-20T00:59:15;4.2;;;2.4;;
17949;SDS011;9100;48.700;9.316;2023-07-20T01:00:15;4.2;;;2.4;;
17949;SDS011;9100;48.700;9.316;2023-07-20T01:01:15;4.2;;;2.4;;
17949;SDS011;9100;48.700;9.316;2023-07-20T01:01:44;5.1;;;2.4;;
17949;SDS011;9100;48.700;9.316;2023-07-20T01:02:15;5.1;;;2.4;;
17949;SDS011;9100;48.700;9.316;2023-07-20T01:03:15;5.1;;;2.4;;
17949;SDS011;9100;48.700;9.316;2023-07-20T01:04:15;5.1;;;2.4;;
17949;SDS011;9100;48.700;9.316;2023-07-20T01:05:15;5.1;;;2.4;;
17949;SDS011;9100;48.700;9.316;2023-07-20T01:06:17;5.1;;;2.4;;
17949;SDS011;9100;48.700;9.316;2023-07-20T01:06:45;4.3;;;2.2;;
17949;SDS011;9100;48.700;9.316;2023-07-20T01:07:17;4.3;;;2.2;;
17949;SDS011;9100;48.700;9.316;2023-07-20T01:08:15;4.3;;;2.2;;
17949;SDS011;9100;48.700;9.316;2023-07-20T01:09:17;4.3;;;2.2;;
17949;SDS011;9100;48.700;9.316;2023-07-20T01:10:17;4.3;;;2.2;;
17949;SDS011;9100;48.700;9.316;2023-07-20T01:11:16;4.3;;;2.2;;
17949;SDS011;9100;48.700;9.316;2023-07-20T01:11:47;4.2;;;2.2;;
17949;SDS011;9100;48.700;9.316;2023-07-20T01:12:18;4.2;;;2.2;;
17949;SDS011;9100;48.700;9.316;2023-07-20T01:13:15;4.2;;;2.2;;
17949;SDS011;9100;48.700;9.316;2023-07-20T01:14:15;4.2;;;2.2;;
17949;SDS011;9100;48.700;9.316;2023-07-20T01:15:15;4.2;;;2.2;;
17949;SDS011;9100;48.700;9.316;2023-07-20T01:16:15;4.2;;;2.2;;
17949;SDS011;9100;48.700;9.316;2023-07-20T01:16:43;4.3;;;2.3;;
17949;SDS011;9100;48.700;9.316;2023-07-20T01:17:15;4.3;;;2.3;;
17949;SDS011;9100;48.700;9.316;2023-07-20T01:18:15;4.3;;;2.3;;
17949;SDS011;9100;48.700;9.316;2023-07-20T01:19:15;4.3;;;2.3;;
17949;SDS011;9100;48.700;9.316;2023-07-20T01:20:15;4.3;;;2.3;;
17949;SDS011;9100;48.700;9.316;2023-07-20T01:21:17;4.3;;;2.3;;
17949;SDS011;9100;48.700;9.316;2023-07-20T01:21:45;2.7;;;2.1;;
17949;SDS011;9100;48.700;9.316;2023-07-20T01:22:19;2.7;;;2.1;;
17949;SDS011;9100;48.700;9.316;2023-07-20T01:23:22;2.7;;;2.1;;
17949;SDS011;9100;48.700;9.316;2023-07-20T01:24:19;2.7;;;2.1;;
17949;SDS011;9100;48.700;9.316;2023-07-20T01:25:21;2.7;;;2.1;;
17949;SDS011;9100;48.700;9.316;2023-07-20T01:26:24;2.7;;;2.1;;
17949;SDS011;9100;48.700;9.316;2023-07-20T01:26:48;2.9;;;2.4;;
17949;SDS011;9100;48.700;9.316;2023-07-20T01:27:36;2.9;;;2.4;;
17949;SDS011;9100;48.700;9.316;2023-07-20T01:28:20;2.9;;;2.4;;
17949;SDS011;9100;48.700;9.316;2023-07-20T01:29:17;2.9;;;2.4;;
17949;SDS011;9100;48.700;9.316;2023-07-20T01:30:21;2.9;;;2.4;;
17949;SDS011;9100;48.700;9.316;2023-07-20T01:31:17;2.9;;;2.4;;
17949;SDS011;9100;48.700;9.316;2023-07-20T01:31:43;4.9;;;2.4;;
17949;SDS011;9100;48.700;9.316;2023-07-20T01:32:15;4.9;;;2.4;;
17949;SDS011;9100;48.700;9.316;2023-07-20T01:33:15;4.9;;;2.4;;
17949;SDS011;9100;48.700;9.316;2023-07-20T01:34:15;4.9;;;2.4;;
17949;SDS011;9100;48.700;9.316;2023-07-20T01:35:15;4.9;;;2.4;;
17949;SDS011;9100;48.700;9.316;2023-07-20T01:36:15;4.9;;;2.4;;
17949;SDS011;9100;48.700;9.316;2023-07-20T01:36:43;3.4;;;2.4;;
17949;SDS011;9100;48.700;9.316;2023-07-20T01:37:15;3.4;;;2.4;;
17949;SDS011;9100;48.700;9.316;2023-07-20T01:38:15;3.4;;;2.4;;
17949;SDS011;9100;48.700;9.316;2023-07-20T01:39:15;3.4;;;2.4;;
17949;SDS011;9100;48.700;9.316;2023-07-20T01:40:15;3.4;;;2.4;;
17949;SDS011;9100;48.700;9.316;2023-07-20T01:41:15;3.4;;;2.4;;
17949;SDS011;9100;48.700;9.316;2023-07-20T01:41:43;2.1;;;2;;
17949;SDS011;9100;48.700;9.316;2023-07-20T01:42:15;2.1;;;2;;
17949;SDS011;9100;48.700;9.316;2023-07-20T01:43:15;2.1;;;2;;
17949;SDS011;9100;48.700;9.316;2023-07-20T01:44:15;2.1;;;2;;
17949;SDS011;9100;48.700;9.316;2023-07-20T01:45:15;2.1;;;2;;
17949;SDS011;9100;48.700;9.316;2023-07-20T01:46:15;2.1;;;2;;
17949;SDS011;9100;48.700;9.316;2023-07-20T01:46:43;4.8;;;2.4;;
17949;SDS011;9100;48.700;9.316;2023-07-20T01:47:15;4.8;;;2.4;;
17949;SDS011;9100;48.700;9.316;2023-07-20T01:48:15;4.8;;;2.4;;
17949;SDS011;9100;48.700;9.316;2023-07-20T01:49:15;4.8;;;2.4;;
17949;SDS011;9100;48.700;9.316;2023-07-20T01:50:15;4.8;;;2.4;;
17949;SDS011;9100;48.700;9.316;2023-07-20T01:51:15;4.8;;;2.4;;
17949;SDS011;9100;48.700;9.316;2023-07-20T01:51:43;3.5;;;2.2;;
17949;SDS011;9100;48.700;9.316;2023-07-20T01:52:15;3.5;;;2.2;;
17949;SDS011;9100;48.700;9.316;2023-07-20T01:53:15;3.5;;;2.2;;
17949;SDS011;9100;48.700;9.316;2023-07-20T01:54:15;3.5;;;2.2;;
17949;SDS011;9100;48.700;9.316;2023-07-20T01:55:15;3.5;;;2.2;;
17949;SDS011;9100;48.700;9.316;2023-07-20T01:56:15;3.5;;;2.2;;
17949;SDS011;9100;48.700;9.316;2023-07-20T01:56:43;2.3;;;2.1;;
17949;SDS011;9100;48.700;9.316;2023-07-20T01:57:15;2.3;;;2.1;;
17949;SDS011;9100;48.700;9.316;2023-07-20T01:58:15;2.3;;;2.1;;
17949;SDS011;9100;48.700;9.316;2023-07-20T01:59:15;2.3;;;2.1;;
17949;SDS011;9100;48.700;9.316;2023-07-20T02:00:15;2.3;;;2.1;;
17949;SDS011;9100;48.700;9.316;2023-07-20T02:01:15;2.3;;;2.1;;
17949;SDS011;9100;48.700;9.316;2023-07-20T02:01:43;2.5;;;2.3;;
17949;SDS011;9100;48.700;9.316;2023-07-20T02:02:15;2.5;;;2.3;;
17949;SDS011;9100;48.700;9.316;2023-07-20T02:03:15;2.5;;;2.3;;
17949;SDS011;9100;48.700;9.316;2023-07-20T02:04:15;2.5;;;2.3;;
17949;SDS011;9100;48.700;9.316;2023-07-20T02:05:15;2.5;;;2.3;;
17949;SDS011;9100;48.700;9.316;2023-07-20T02:06:15;2.5;;;2.3;;
17949;SDS011;9100;48.700;9.316;2023-07-20T02:06:43;6.2;;;2.2;;
17949;SDS011;9100;48.700;9.316;2023-07-20T02:07:15;6.2;;;2.2;;
17949;SDS011;9100;48.700;9.316;2023-07-20T02:08:15;6.2;;;2.2;;
17949;SDS011;9100;48.700;9.316;2023-07-20T02:09:15;6.2;;;2.2;;
17949;SDS011;9100;48.700;9.316;2023-07-20T02:10:15;6.2;;;2.2;;
17949;SDS011;9100;48.700;9.316;2023-07-20T02:11:15;6.2;;;2.2;;
17949;SDS011;9100;48.700;9.316;2023-07-20T02:11:43;6.4;;;2.4;;
17949;SDS011;9100;48.700;9.316;2023-07-20T02:12:15;6.4;;;2.4;;
17949;SDS011;9100;48.700;9.316;2023-07-20T02:13:15;6.4;;;2.4;;
17949;SDS011;9100;48.700;9.316;2023-07-20T02:14:15;6.4;;;2.4;;
17949;SDS011;9100;48.700;9.316;2023-07-20T02:15:15;6.4;;;2.4;;
17949;SDS011;9100;48.700;9.316;2023-07-20T02:16:15;6.4;;;2.4;;
17949;SDS011;9100;48.700;9.316;2023-07-20T02:16:43;2.8;;;2.4;;
17949;SDS011;9100;48.700;9.316;2023-07-20T02:17:15;2.8;;;2.4;;
17949;SDS011;9100;48.700;9.316;2023-07-20T02:18:15;2.8;;;2.4;;
17949;SDS011;9100;48.700;9.316;2023-07-20T02:19:15;2.8;;;2.4;;
17949;SDS011;9100;48.700;9.316;2023-07-20T02:20:15;2.8;;;2.4;;
17949;SDS011;9100;48.700;9.316;2023-07-20T02:21:15;2.8;;;2.4;;
17949;SDS011;9100;48.700;9.316;2023-07-20T02:21:43;5.6;;;2.6;;
17949;SDS011;9100;48.700;9.316;2023-07-20T02:22:15;5.6;;;2.6;;
17949;SDS011;9100;48.700;9.316;2023-07-20T02:23:15;5.6;;;2.6;;
17949;SDS011;9100;48.700;9.316;2023-07-20T02:24:15;5.6;;;2.6;;
17949;SDS011;9100;48.700;9.316;2023-07-20T02:25:15;5.6;;;2.6;;
17949;SDS011;9100;48.700;9.316;2023-07-20T02:26:15;5.6;;;2.6;;
17949;SDS011;9100;48.700;9.316;2023-07-20T02:26:43;2.3;;;2.1;;
17949;SDS011;9100;48.700;9.316;2023-07-20T02:27:15;2.3;;;2.1;;
17949;SDS011;9100;48.700;9.316;2023-07-20T02:28:15;2.3;;;2.1;;
17949;SDS011;9100;48.700;9.316;2023-07-20T02:29:15;2.3;;;2.1;;
17949;SDS011;9100;48.700;9.316;2023-07-20T02:30:15;2.3;;;2.1;;
17949;SDS011;9100;48.700;9.316;2023-07-20T02:31:15;2.3;;;2.1;;
17949;SDS011;9100;48.700;9.316;2023-07-20T02:31:43;2.2;;;2;;
17949;SDS011;9100;48.700;9.316;2023-07-20T02:32:15;2.2;;;2;;
17949;SDS011;9100;48.700;9.316;2023-07-20T02:33:15;2.2;;;2;;
17949;SDS011;9100;48.700;9.316;2023-07-20T02:34:15;2.2;;;2;;
17949;SDS011;9100;48.700;9.316;2023-07-20T02:35:15;2.2;;;2;;
17949;SDS011;9100;48.700;9.316;2023-07-20T02:36:15;2.2;;;2;;
17949;SDS011;9100;48.700;9.316;2023-07-20T02:36:43;2.5;;;2.3;;
17949;SDS011;9100;48.700;9.316;2023-07-20T02:37:15;2.5;;;2.3;;
17949;SDS011;9100;48.700;9.316;2023-07-20T02:38:15;2.5;;;2.3;;
17949;SDS011;9100;48.700;9.316;2023-07-20T02:39:15;2.5;;;2.3;;
17949;SDS011;9100;48.700;9.316;2023-07-20T02:40:15;2.5;;;2.3;;
17949;SDS011;9100;48.700;9.316;2023-07-20T02:41:15;2.5;;;2.3;;
17949;SDS011;9100;48.700;9.316;2023-07-20T02:41:43;7.9;;;2.5;;
17949;SDS011;9100;48.700;9.316;2023-07-20T02:42:15;7.9;;;2.5;;
17949;SDS011;9100;48.700;9.316;2023-07-20T02:43:15;7.9;;;2.5;;
17949;SDS011;9100;48.700;9.316;2023-07-20T02:44:15;7.9;;;2.5;;
17949;SDS011;9100;48.700;9.316;2023-07-20T02:45:15;7.9;;;2.5;;
17949;SDS011;9100;48.700;9.316;2023-07-20T02:46:15;7.9;;;2.5;;
17949;SDS011;9100;48.700;9.316;2023-07-20T02:46:43;2.5;;;2.3;;
17949;SDS011;9100;48.700;9.316;2023-07-20T02:47:15;2.5;;;2.3;;
17949;SDS011;9100;48.700;9.316;2023-07-20T02:48:15;2.5;;;2.3;;
17949;SDS011;9100;48.700;9.316;2023-07-20T02:49:15;2.5;;;2.3;;
17949;SDS011;9100;48.700;9.316;2023-07-20T02:50:15;2.5;;;2.3;;
17949;SDS011;9100;48.700;9.316;2023-07-20T02:51:15;2.5;;;2.3;;
17949;SDS011;9100;48.700;9.316;2023-07-20T02:51:43;3.8;;;2.5;;
17949;SDS011;9100;48.700;9.316;2023-07-20T02:52:15;3.8;;;2.5;;
17949;SDS011;9100;48.700;9.316;2023-07-20T02:53:15;3.8;;;2.5;;
17949;SDS011;9100;48.700;9.316;2023-07-20T02:54:15;3.8;;;2.5;;
17949;SDS011;9100;48.700;9.316;2023-07-20T02:55:15;3.8;;;2.5;;
17949;SDS011;9100;48.700;9.316;2023-07-20T02:56:15;3.8;;;2.5;;
17949;SDS011;9100;48.700;9.316;2023-07-20T02:56:43;5.5;;;2.6;;
17949;SDS011;9100;48.700;9.316;2023-07-20T02:57:15;5.5;;;2.6;;
17949;SDS011;9100;48.700;9.316;2023-07-20T02:58:15;5.5;;;2.6;;
17949;SDS011;9100;48.700;9.316;2023-07-20T02:59:15;5.5;;;2.6;;
17949;SDS011;9100;48.700;9.316;2023-07-20T03:00:15;5.5;;;2.6;;
17949;SDS011;9100;48.700;9.316;2023-07-20T03:01:15;5.5;;;2.6;;
17949;SDS011;9100;48.700;9.316;2023-07-20T03:01:43;2.7;;;2.5;;
17949;SDS011;9100;48.700;9.316;2023-07-20T03:02:15;2.7;;;2.5;;
17949;SDS011;9100;48.700;9.316;2023-07-20T03:03:15;2.7;;;2.5;;
17949;SDS011;9100;48.700;9.316;2023-07-20T03:04:15;2.7;;;2.5;;
17949;SDS011;9100;48.700;9.316;2023-07-20T03:05:15;2.7;;;2.5;;
17949;SDS011;9100;48.700;9.316;2023-07-20T03:06:15;2.7;;;2.5;;
17949;SDS011;9100;48.700;9.316;2023-07-20T03:06:43;2.5;;;2.3;;
17949;SDS011;9100;48.700;9.316;2023-07-20T03:07:15;2.5;;;2.3;;
17949;SDS011;9100;48.700;9.316;2023-07-20T03:08:15;2.5;;;2.3;;
17949;SDS011;9100;48.700;9.316;2023-07-20T03:09:15;2.5;;;2.3;;
17949;SDS011;9100;48.700;9.316;2023-07-20T03:10:15;2.5;;;2.3;;
17949;SDS011;9100;48.700;9.316;2023-07-20T03:11:15;2.5;;;2.3;;
17949;SDS011;9100;48.700;9.316;2023-07-20T03:11:43;5.2;;;2.3;;
17949;SDS011;9100;48.700;9.316;2023-07-20T03:12:15;5.2;;;2.3;;
17949;SDS011;9100;48.700;9.316;2023-07-20T03:13:15;5.2;;;2.3;;
17949;SDS011;9100;48.700;9.316;2023-07-20T03:14:15;5.2;;;2.3;;
17949;SDS011;9100;48.700;9.316;2023-07-20T03:15:15;5.2;;;2.3;;
17949;SDS011;9100;48.700;9.316;2023-07-20T03:16:17;5.2;;;2.3;;
17949;SDS011;9100;48.700;9.316;2023-07-20T03:16:43;2.6;;;2.4;;
17949;SDS011;9100;48.700;9.316;2023-07-20T03:17:15;2.6;;;2.4;;
17949;SDS011;9100;48.700;9.316;2023-07-20T03:18:15;2.6;;;2.4;;
17949;SDS011;9100;48.700;9.316;2023-07-20T03:19:15;2.6;;;2.4;;
17949;SDS011;9100;48.700;9.316;2023-07-20T03:20:15;2.6;;;2.4;;
17949;SDS011;9100;48.700;9.316;2023-07-20T03:21:15;2.6;;;2.4;;
17949;SDS011;9100;48.700;9.316;2023-07-20T03:21:43;4.7;;;2.4;;
17949;SDS011;9100;48.700;9.316;2023-07-20T03:22:15;4.7;;;2.4;;
17949;SDS011;9100;48.700;9.316;2023-07-20T03:23:15;4.7;;;2.4;;
17949;SDS011;9100;48.700;9.316;2023-07-20T03:24:15;4.7;;;2.4;;
17949;SDS011;9100;48.700;9.316;2023-07-20T03:25:15;4.7;;;2.4;;
17949;SDS011;9100;48.700;9.316;2023-07-20T03:26:15;4.7;;;2.4;;
17949;SDS011;9100;48.700;9.316;2023-07-20T03:26:43;2.4;;;2.2;;
17949;SDS011;9100;48.700;9.316;2023-07-20T03:27:15;2.4;;;2.2;;
17949;SDS011;9100;48.700;9.316;2023-07-20T03:28:15;2.4;;;2.2;;
17949;SDS011;9100;48.700;9.316;2023-07-20T03:29:15;2.4;;;2.2;;
17949;SDS011;9100;48.700;9.316;2023-07-20T03:30:15;2.4;;;2.2;;
17949;SDS011;9100;48.700;9.316;2023-07-20T03:31:15;2.4;;;2.2;;
17949;SDS011;9100;48.700;9.316;2023-07-20T03:31:43;3.8;;;2.7;;
17949;SDS011;9100;48.700;9.316;2023-07-20T03:32:15;3.8;;;2.7;;
17949;SDS011;9100;48.700;9.316;2023-07-20T03:33:15;3.8;;;2.7;;
17949;SDS011;9100;48.700;9.316;2023-07-20T03:34:15;3.8;;;2.7;;
17949;SDS011;9100;48.700;9.316;2023-07-20T03:35:15;3.8;;;2.7;;
17949;SDS011;9100;48.700;9.316;2023-07-20T03:36:15;3.8;;;2.7;;
17949;SDS011;9100;48.700;9.316;2023-07-20T03:36:43;3;;;2.5;;
17949;SDS011;9100;48.700;9.316;2023-07-20T03:37:15;3;;;2.5;;
17949;SDS011;9100;48.700;9.316;2023-07-20T03:38:15;3;;;2.5;;
17949;SDS011;9100;48.700;9.316;2023-07-20T03:39:15;3;;;2.5;;
17949;SDS011;9100;48.700;9.316;2023-07-20T03:40:15;3;;;2.5;;
17949;SDS011;9100;48.700;9.316;2023-07-20T03:41:15;3;;;2.5;;
17949;SDS011;9100;48.700;9.316;2023-07-20T03:41:44;2.6;;;2.4;;
17949;SDS011;9100;48.700;9.316;2023-07-20T03:42:15;2.6;;;2.4;;
17949;SDS011;9100;48.700;9.316;2023-07-20T03:43:15;2.6;;;2.4;;
17949;SDS011;9100;48.700;9.316;2023-07-20T03:44:15;2.6;;;2.4;;
17949;SDS011;9100;48.700;9.316;2023-07-20T03:45:15;2.6;;;2.4;;
17949;SDS011;9100;48.700;9.316;2023-07-20T03:46:15;2.6;;;2.4;;
17949;SDS011;9100;48.700;9.316;2023-07-20T03:46:43;3.3;;;2.5;;
17949;SDS011;9100;48.700;9.316;2023-07-20T03:47:15;3.3;;;2.5;;
17949;SDS011;9100;48.700;9.316;2023-07-20T03:48:15;3.3;;;2.5;;
17949;SDS011;9100;48.700;9.316;2023-07-20T03:49:15;3.3;;;2.5;;
17949;SDS011;9100;48.700;9.316;2023-07-20T03:50:15;3.3;;;2.5;;
17949;SDS011;9100;48.700;9.316;2023-07-20T03:51:15;3.3;;;2.5;;
17949;SDS011;9100;48.700;9.316;2023-07-20T03:51:43;3;;;2.2;;
17949;SDS011;9100;48.700;9.316;2023-07-20T03:52:15;3;;;2.2;;
17949;SDS011;9100;48.700;9.316;2023-07-20T03:53:15;3;;;2.2;;
17949;SDS011;9100;48.700;9.316;2023-07-20T03:54:15;3;;;2.2;;
17949;SDS011;9100;48.700;9.316;2023-07-20T03:55:15;3;;;2.2;;
17949;SDS011;9100;48.700;9.316;2023-07-20T03:56:15;3;;;2.2;;
17949;SDS011;9100;48.700;9.316;2023-07-20T03:56:43;3.2;;;2.7;;
17949;SDS011;9100;48.700;9.316;2023-07-20T03:57:15;3.2;;;2.7;;
17949;SDS011;9100;48.700;9.316;2023-07-20T03:58:15;3.2;;;2.7;;
17949;SDS011;9100;48.700;9.316;2023-07-20T03:59:15;3.2;;;2.7;;
17949;SDS011;9100;48.700;9.316;2023-07-20T04:00:15;3.2;;;2.7;;
17949;SDS011;9100;48.700;9.316;2023-07-20T04:01:15;3.2;;;2.7;;
17949;SDS011;9100;48.700;9.316;2023-07-20T04:01:43;6;;;2.3;;
17949;SDS011;9100;48.700;9.316;2023-07-20T04:02:15;6;;;2.3;;
17949;SDS011;9100;48.700;9.316;2023-07-20T04:03:15;6;;;2.3;;
17949;SDS011;9100;48.700;9.316;2023-07-20T04:04:15;6;;;2.3;;
17949;SDS011;9100;48.700;9.316;2023-07-20T04:05:15;6;;;2.3;;
17949;SDS011;9100;48.700;9.316;2023-07-20T04:06:15;6;;;2.3;;
17949;SDS011;9100;48.700;9.316;2023-07-20T04:06:43;2.9;;;2.5;;
17949;SDS011;9100;48.700;9.316;2023-07-20T04:07:15;2.9;;;2.5;;
17949;SDS011;9100;48.700;9.316;2023-07-20T04:08:15;2.9;;;2.5;;
17949;SDS011;9100;48.700;9.316;2023-07-20T04:09:15;2.9;;;2.5;;
17949;SDS011;9100;48.700;9.316;2023-07-20T04:10:15;2.9;;;2.5;;
17949;SDS011;9100;48.700;9.316;2023-07-20T04:11:15;2.9;;;2.5;;
17949;SDS011;9100;48.700;9.316;2023-07-20T04:11:43;3.3;;;2.7;;
17949;SDS011;9100;48.700;9.316;2023-07-20T04:12:15;3.3;;;2.7;;
17949;SDS011;9100;48.700;9.316;2023-07-20T04:13:15;3.3;;;2.7;;
17949;SDS011;9100;48.700;9.316;2023-07-20T04:14:15;3.3;;;2.7;;
17949;SDS011;9100;48.700;9.316;2023-07-20T04:15:15;3.3;;;2.7;;
17949;SDS011;9100;48.700;9.316;2023-07-20T04:16:15;3.3;;;2.7;;
17949;SDS011;9100;48.700;9.316;2023-07-20T04:16:45;2.7;;;2.5;;
17949;SDS011;9100;48.700;9.316;2023-07-20T04:17:15;2.7;;;2.5;;
17949;SDS011;9100;48.700;9.316;2023-07-20T04:18:15;2.7;;;2.5;;
17949;SDS011;9100;48.700;9.316;2023-07-20T04:19:15;2.7;;;2.5;;
17949;SDS011;9100;48.700;9.316;2023-07-20T04:20:15;2.7;;;2.5;;
17949;SDS011;9100;48.700;9.316;2023-07-20T04:21:15;2.7;;;2.5;;
17949;SDS011;9100;48.700;9.316;2023-07-20T04:21:43;4.2;;;2.9;;
17949;SDS011;9100;48.700;9.316;2023-07-20T04:22:15;4.2;;;2.9;;
17949;SDS011;9100;48.700;9.316;2023-07-20T04:23:15;4.2;;;2.9;;
17949;SDS011;9100;48.700;9.316;2023-07-20T04:24:15;4.2;;;2.9;;
17949;SDS011;9100;48.700;9.316;2023-07-20T04:25:15;4.2;;;2.9;;
17949;SDS011;9100;48.700;9.316;2023-07-20T04:26:15;4.2;;;2.9;;
17949;SDS011;9100;48.700;9.316;2023-07-20T04:26:43;4.1;;;2.9;;
17949;SDS011;9100;48.700;9.316;2023-07-20T04:27:15;4.1;;;2.9;;
17949;SDS011;9100;48.700;9.316;2023-07-20T04:28:15;4.1;;;2.9;;
17949;SDS011;9100;48.700;9.316;2023-07-20T04:29:15;4.1;;;2.9;;
17949;SDS011;9100;48.700;9.316;2023-07-20T04:30:16;4.1;;;2.9;;
17949;SDS011;9100;48.700;9.316;2023-07-20T04:31:15;4.1;;;2.9;;
17949;SDS011;9100;48.700;9.316;2023-07-20T04:31:43;2.7;;;2.4;;
17949;SDS011;9100;48.700;9.316;2023-07-20T04:32:15;2.7;;;2.4;;
17949;SDS011;9100;48.700;9.316;2023-07-20T04:33:15;2.7;;;2.4;;
17949;SDS011;9100;48.700;9.316;2023-07-20T04:34:15;2.7;;;2.4;;
17949;SDS011;9100;48.700;9.316;2023-07-20T04:35:17;2.7;;;2.4;;
17949;SDS011;9100;48.700;9.316;2023-07-20T04:36:15;2.7;;;2.4;;
17949;SDS011;9100;48.700;9.316;2023-07-20T04:36:43;9.1;;;2.7;;
17949;SDS011;9100;48.700;9.316;2023-07-20T04:37:15;9.1;;;2.7;;
17949;SDS011;9100;48.700;9.316;2023-07-20T04:38:15;9.1;;;2.7;;
17949;SDS011;9100;48.700;9.316;2023-07-20T04:39:15;9.1;;;2.7;;
17949;SDS011;9100;48.700;9.316;2023-07-20T04:40:15;9.1;;;2.7;;
17949;SDS011;9100;48.700;9.316;2023-07-20T04:41:15;9.1;;;2.7;;
17949;SDS011;9100;48.700;9.316;2023-07-20T04:41:43;3;;;2.7;;
17949;SDS011;9100;48.700;9.316;2023-07-20T04:42:15;3;;;2.7;;
17949;SDS011;9100;48.700;9.316;2023-07-20T04:43:15;3;;;2.7;;
17949;SDS011;9100;48.700;9.316;2023-07-20T04:44:15;3;;;2.7;;
17949;SDS011;9100;48.700;9.316;2023-07-20T04:45:15;3;;;2.7;;
17949;SDS011;9100;48.700;9.316;2023-07-20T04:46:15;3;;;2.7;;
17949;SDS011;9100;48.700;9.316;2023-07-20T04:46:43;2.5;;;2.3;;
17949;SDS011;9100;48.700;9.316;2023-07-20T04:47:15;2.5;;;2.3;;
17949;SDS011;9100;48.700;9.316;2023-07-20T04:48:15;2.5;;;2.3;;
17949;SDS011;9100;48.700;9.316;2023-07-20T04:49:15;2.5;;;2.3;;
17949;SDS011;9100;48.700;9.316;2023-07-20T04:50:15;2.5;;;2.3;;
17949;SDS011;9100;48.700;9.316;2023-07-20T04:51:15;2.5;;;2.3;;
17949;SDS011;9100;48.700;9.316;2023-07-20T04:51:44;5.2;;;2.3;;
17949;SDS011;9100;48.700;9.316;2023-07-20T04:52:15;5.2;;;2.3;;
17949;SDS011;9100;48.700;9.316;2023-07-20T04:53:15;5.2;;;2.3;;
17949;SDS011;9100;48.700;9.316;2023-07-20T04:54:15;5.2;;;2.3;;
17949;SDS011;9100;48.700;9.316;2023-07-20T04:55:15;5.2;;;2.3;;
17949;SDS011;9100;48.700;9.316;2023-07-20T04:56:15;5.2;;;2.3;;
17949;SDS011;9100;48.700;9.316;2023-07-20T04:56:44;3.7;;;2.7;;
17949;SDS011;9100;48.700;9.316;2023-07-20T04:57:15;3.7;;;2.7;;
17949;SDS011;9100;48.700;9.316;2023-07-20T04:58:15;3.7;;;2.7;;
17949;SDS011;9100;48.700;9.316;2023-07-20T04:59:15;3.7;;;2.7;;
17949;SDS011;9100;48.700;9.316;2023-07-20T05:00:15;3.7;;;2.7;;
17949;SDS011;9100;48.700;9.316;2023-07-20T05:01:15;3.7;;;2.7;;
17949;SDS011;9100;48.700;9.316;2023-07-20T05:01:43;3.1;;;2.5;;
17949;SDS011;9100;48.700;9.316;2023-07-20T05:02:15;3.1;;;2.5;;
17949;SDS011;9100;48.700;9.316;2023-07-20T05:03:15;3.1;;;2.5;;
17949;SDS011;9100;48.700;9.316;2023-07-20T05:04:15;3.1;;;2.5;;
17949;SDS011;9100;48.700;9.316;2023-07-20T05:05:15;3.1;;;2.5;;
17949;SDS011;9100;48.700;9.316;2023-07-20T05:06:15;3.1;;;2.5;;
17949;SDS011;9100;48.700;9.316;2023-07-20T05:06:43;6.3;;;2.8;;
17949;SDS011;9100;48.700;9.316;2023-07-20T05:07:15;6.3;;;2.8;;
17949;SDS011;9100;48.700;9.316;2023-07-20T05:08:15;6.3;;;2.8;;
17949;SDS011;9100;48.700;9.316;2023-07-20T05:09:15;6.3;;;2.8;;
17949;SDS011;9100;48.700;9.316;2023-07-20T05:10:15;6.3;;;2.8;;
17949;SDS011;9100;48.700;9.316;2023-07-20T05:11:15;6.3;;;2.8;;
17949;SDS011;9100;48.700;9.316;2023-07-20T05:11:43;11.8;;;10;;
17949;SDS011;9100;48.700;9.316;2023-07-20T05:12:15;11.8;;;10;;
17949;SDS011;9100;48.700;9.316;2023-07-20T05:13:15;11.8;;;10;;
17949;SDS011;9100;48.700;9.316;2023-07-20T05:14:15;11.8;;;10;;
17949;SDS011;9100;48.700;9.316;2023-07-20T05:15:15;11.8;;;10;;
17949;SDS011;9100;48.700;9.316;2023-07-20T05:16:15;11.8;;;10;;
17949;SDS011;9100;48.700;9.316;2023-07-20T05:16:43;5.5;;;2.9;;